createdAt,value
2019-05-01T00:03:14.057Z,18.73
2019-05-01T00:06:34.554Z,11.93
2019-05-01T00:09:48.393Z,10.93
2019-05-01T00:13:03.307Z,13.67
2019-05-01T00:16:17.254Z,13.00
2019-05-01T00:19:30.869Z,15.93
2019-05-01T00:22:44.357Z,13.43
2019-05-01T00:25:57.868Z,14.10
2019-05-01T00:29:11.784Z,14.00
2019-05-01T00:32:25.268Z,12.07
2019-05-01T00:35:38.770Z,12.43
2019-05-01T00:38:52.279Z,13.77
2019-05-01T00:42:05.883Z,11.60
2019-05-01T00:45:19.707Z,14.40
2019-05-01T00:48:33.524Z,14.07
2019-05-01T00:51:47.385Z,15.87
2019-05-01T00:55:19.320Z,13.77
2019-05-01T00:58:41.607Z,13.03
2019-05-01T01:02:13.252Z,12.43
2019-05-01T01:05:26.961Z,12.97
2019-05-01T01:08:40.451Z,13.17
2019-05-01T01:11:53.946Z,17.00
2019-05-01T01:15:07.759Z,13.53
2019-05-01T01:18:21.348Z,12.90
2019-05-01T01:21:35.860Z,14.60
2019-05-01T01:24:49.706Z,15.97
2019-05-01T01:28:03.830Z,12.73
2019-05-01T01:31:17.473Z,15.13
2019-05-01T01:34:31.133Z,13.80
2019-05-01T01:37:44.820Z,14.23
2019-05-01T01:40:58.533Z,16.20
2019-05-01T01:44:50.184Z,13.67
2019-05-01T01:48:11.454Z,14.97
2019-05-01T01:51:25.680Z,12.63
2019-05-01T01:54:39.593Z,13.70
2019-05-01T01:57:53.997Z,14.07
2019-05-01T02:01:26.081Z,14.57
2019-05-01T02:04:58.192Z,14.50
2019-05-01T02:08:12.485Z,14.23
2019-05-01T02:11:26.651Z,13.40
2019-05-01T02:14:40.242Z,13.23
2019-05-01T02:17:54.216Z,12.63
2019-05-01T02:21:07.978Z,15.40
2019-05-01T02:24:21.917Z,15.07
2019-05-01T02:27:42.053Z,16.40
2019-05-01T02:31:27.316Z,15.93
2019-05-01T02:34:31.056Z,14.33
2019-05-01T02:37:45.712Z,13.37
2019-05-01T02:41:02.323Z,13.97
2019-05-01T02:44:24.051Z,16.57
2019-05-01T02:47:38.962Z,20.87
2019-05-01T02:50:57.065Z,14.07
2019-05-01T02:54:12.851Z,16.27
2019-05-01T02:57:27.052Z,13.87
2019-05-01T03:00:41.400Z,17.60
2019-05-01T03:03:55.973Z,15.73
2019-05-01T03:07:10.581Z,18.07
2019-05-01T03:10:24.510Z,16.30
2019-05-01T03:13:40.313Z,15.33
2019-05-01T03:16:58.432Z,16.27
2019-05-01T03:20:45.757Z,15.80
2019-05-01T03:24:11.692Z,15.60
2019-05-01T03:27:25.534Z,15.00
2019-05-01T03:30:39.327Z,15.70
2019-05-01T03:33:53.146Z,16.67
2019-05-01T03:37:08.110Z,16.40
2019-05-01T03:40:22.098Z,16.03
2019-05-01T03:43:36.300Z,15.67
2019-05-01T03:46:50.356Z,17.73
2019-05-01T03:50:04.838Z,15.57
2019-05-01T03:53:18.753Z,16.07
2019-05-01T03:56:32.368Z,19.10
2019-05-01T03:59:46.064Z,17.03
2019-05-01T04:03:34.895Z,17.00
2019-05-01T04:06:48.829Z,19.07
2019-05-01T04:10:03.439Z,16.80
2019-05-01T04:13:17.263Z,16.43
2019-05-01T04:16:32.125Z,16.63
2019-05-01T04:19:46.142Z,16.40
2019-05-01T04:23:00.194Z,15.83
2019-05-01T04:26:13.899Z,17.53
2019-05-01T04:29:47.582Z,18.23
2019-05-01T04:33:04.347Z,19.87
2019-05-01T04:36:24.490Z,16.23
2019-05-01T04:39:38.502Z,16.93
2019-05-01T04:42:52.426Z,15.83
2019-05-01T04:46:06.667Z,18.17
2019-05-01T04:49:20.926Z,17.83
2019-05-01T04:52:35.026Z,17.57
2019-05-01T04:55:49.126Z,16.77
2019-05-01T04:59:02.862Z,23.07
2019-05-01T05:02:23.672Z,15.97
2019-05-01T05:05:37.673Z,19.33
2019-05-01T05:08:51.414Z,20.23
2019-05-01T05:12:07.534Z,22.00
2019-05-01T05:16:49.780Z,18.10
2019-05-01T05:20:03.922Z,21.37
2019-05-01T05:26:51.776Z,23.23
2019-05-01T05:30:05.582Z,19.77
2019-05-01T05:33:20.757Z,23.17
2019-05-01T05:36:36.481Z,20.60
2019-05-01T05:39:51.004Z,26.07
2019-05-01T05:43:05.225Z,23.87
2019-05-01T05:46:18.917Z,27.20
2019-05-01T05:49:33.383Z,27.73
2019-05-01T05:52:53.221Z,28.20
2019-05-01T05:56:13.139Z,33.60
2019-05-01T05:59:30.660Z,35.10
2019-05-01T06:03:00.892Z,31.30
2019-05-01T06:06:27.565Z,33.07
2019-05-01T06:10:00.189Z,35.90
2019-05-01T06:13:42.706Z,37.37
2019-05-01T06:17:28.488Z,28.90
2019-05-01T06:20:57.061Z,32.63
2019-05-01T06:24:13.275Z,27.63
2019-05-01T06:27:27.684Z,32.80
2019-05-01T06:30:42.095Z,29.43
2019-05-01T06:33:57.247Z,30.73
2019-05-01T06:37:11.054Z,32.23
2019-05-01T06:40:37.555Z,27.43
2019-05-01T06:44:02.393Z,32.43
2019-05-01T06:47:21.697Z,27.73
2019-05-01T06:50:41.603Z,26.17
2019-05-01T06:53:55.144Z,28.40
2019-05-01T06:57:09.096Z,28.83
2019-05-01T07:00:22.812Z,33.33
2019-05-01T07:03:40.853Z,32.43
2019-05-01T07:06:53.049Z,34.30
2019-05-01T07:10:06.953Z,31.83
2019-05-01T07:13:21.084Z,32.07
2019-05-01T07:16:38.070Z,31.73
2019-05-01T07:20:12.011Z,31.50
2019-05-01T07:23:24.216Z,28.20
2019-05-01T07:26:38.154Z,27.83
2019-05-01T07:29:54.829Z,31.80
2019-05-01T07:33:12.070Z,30.93
2019-05-01T07:36:24.481Z,29.93
2019-05-01T07:39:38.372Z,30.13
2019-05-01T07:42:56.890Z,29.50
2019-05-01T07:46:36.323Z,32.37
2019-05-01T07:49:54.780Z,30.27
2019-05-01T07:53:09.059Z,33.27
2019-05-01T07:56:28.141Z,31.40
2019-05-01T07:59:40.803Z,31.23
2019-05-01T08:02:55.196Z,32.43
2019-05-01T08:06:09.207Z,30.97
2019-05-01T08:09:22.751Z,31.77
2019-05-01T08:12:36.266Z,32.90
2019-05-01T08:15:50.062Z,31.63
2019-05-01T08:19:16.769Z,31.77
2019-05-01T08:22:37.089Z,30.73
2019-05-01T08:25:49.114Z,31.70
2019-05-01T08:29:26.391Z,28.80
2019-05-01T08:32:47.581Z,32.17
2019-05-01T08:36:01.383Z,33.77
2019-05-01T08:39:15.105Z,32.23
2019-05-01T08:42:28.726Z,29.60
2019-05-01T08:46:02.120Z,29.30
2019-05-01T08:49:28.587Z,32.97
2019-05-01T08:52:42.733Z,28.60
2019-05-01T08:55:57.759Z,32.00
2019-05-01T08:59:11.437Z,28.43
2019-05-01T09:02:25.105Z,30.43
2019-05-01T09:05:38.586Z,30.10
2019-05-01T09:08:52.111Z,26.57
2019-05-01T09:12:06.911Z,28.00
2019-05-01T09:15:21.157Z,26.90
2019-05-01T09:18:34.784Z,30.07
2019-05-01T09:21:48.498Z,24.90
2019-05-01T09:25:02.889Z,24.90
2019-05-01T09:28:23.099Z,21.73
2019-05-01T09:31:36.917Z,21.40
2019-05-01T09:34:50.771Z,19.73
2019-05-01T09:38:04.506Z,20.53
2019-05-01T09:41:18.219Z,20.83
2019-05-01T09:44:32.141Z,18.90
2019-05-01T09:47:46.087Z,18.37
2019-05-01T09:51:07.697Z,14.77
2019-05-01T09:54:34.858Z,19.10
2019-05-01T09:57:48.684Z,16.97
2019-05-01T10:01:02.616Z,17.03
2019-05-01T10:04:16.242Z,15.97
2019-05-01T10:07:30.790Z,13.27
2019-05-01T10:10:44.491Z,13.00
2019-05-01T10:13:59.696Z,15.50
2019-05-01T10:17:13.627Z,13.03
2019-05-01T10:20:27.376Z,13.63
2019-05-01T10:23:41.296Z,16.60
2019-05-01T10:27:00.197Z,16.07
2019-05-01T10:30:27.219Z,14.17
2019-05-01T10:33:43.496Z,14.27
2019-05-01T10:36:57.361Z,15.10
2019-05-01T10:40:11.296Z,14.23
2019-05-01T10:43:24.975Z,16.03
2019-05-01T10:46:38.490Z,14.63
2019-05-01T10:49:52.114Z,14.63
2019-05-01T10:53:05.885Z,14.20
2019-05-01T10:56:19.535Z,14.80
2019-05-01T10:59:33.071Z,13.50
2019-05-01T11:02:46.855Z,15.83
2019-05-01T11:06:00.871Z,14.00
2019-05-01T11:09:14.518Z,15.37
2019-05-01T11:12:28.207Z,14.27
2019-05-01T11:15:41.837Z,14.13
2019-05-01T11:18:55.470Z,14.83
2019-05-01T11:22:09.348Z,14.43
2019-05-01T11:25:22.988Z,14.03
2019-05-01T11:28:36.840Z,12.80
2019-05-01T11:32:15.827Z,15.63
2019-05-01T11:35:49.618Z,14.27
2019-05-01T11:39:23.321Z,13.57
2019-05-01T11:42:37.063Z,13.73
2019-05-01T11:45:50.888Z,12.67
2019-05-01T11:49:05.195Z,14.30
2019-05-01T11:52:18.758Z,13.57
2019-05-01T11:55:32.466Z,12.33
2019-05-01T11:58:46.097Z,14.67
2019-05-01T12:02:02.384Z,12.90
2019-05-01T12:05:15.491Z,12.77
2019-05-01T12:08:29.121Z,13.57
2019-05-01T12:11:45.201Z,13.70
2019-05-01T12:16:52.117Z,13.20
2019-05-01T12:20:06.840Z,12.87
2019-05-01T12:23:20.956Z,13.20
2019-05-01T12:26:34.807Z,12.43
2019-05-01T12:29:48.802Z,14.60
2019-05-01T12:33:02.539Z,12.67
2019-05-01T12:36:16.214Z,10.83
2019-05-01T12:39:32.126Z,13.87
2019-05-01T12:42:45.969Z,11.77
2019-05-01T12:45:59.981Z,12.10
2019-05-01T12:49:15.834Z,14.57
2019-05-01T12:56:49.158Z,14.83
2019-05-01T13:00:08.972Z,11.47
2019-05-01T13:03:20.674Z,9.60
2019-05-01T13:06:34.935Z,11.73
2019-05-01T13:09:48.831Z,11.27
2019-05-01T13:13:02.704Z,9.87
2019-05-01T13:16:16.395Z,10.77
2019-05-01T13:19:30.605Z,11.17
2019-05-01T13:22:44.619Z,11.90
2019-05-01T13:26:05.417Z,10.23
2019-05-01T13:29:38.898Z,9.27
2019-05-01T13:32:53.567Z,11.30
2019-05-01T13:36:07.388Z,9.20
2019-05-01T13:39:21.151Z,10.63
2019-05-01T13:42:35.050Z,9.63
2019-05-01T13:45:48.636Z,10.60
2019-05-01T13:49:02.500Z,11.27
2019-05-01T13:52:16.156Z,15.60
2019-05-01T13:55:29.913Z,9.70
2019-05-01T13:58:43.501Z,13.30
2019-05-01T14:01:57.250Z,9.30
2019-05-01T14:05:11.062Z,26.50
2019-05-01T14:08:24.822Z,10.60
2019-05-01T14:11:38.595Z,19.67
2019-05-01T14:14:52.289Z,12.97
2019-05-01T14:18:05.873Z,10.83
2019-05-01T14:21:31.243Z,10.60
2019-05-01T14:24:48.651Z,9.97
2019-05-01T14:28:02.282Z,13.13
2019-05-01T14:31:16.388Z,10.03
2019-05-01T14:34:29.896Z,8.77
2019-05-01T14:37:43.451Z,9.20
2019-05-01T14:40:57.010Z,11.07
2019-05-01T14:44:10.946Z,9.97
2019-05-01T14:47:25.163Z,11.23
2019-05-01T14:50:38.982Z,10.07
2019-05-01T14:53:52.619Z,9.97
2019-05-01T14:57:06.211Z,8.93
2019-05-01T15:00:20.538Z,10.67
2019-05-01T15:03:34.209Z,10.67
2019-05-01T15:06:47.749Z,8.67
2019-05-01T15:10:01.363Z,10.83
2019-05-01T15:13:25.422Z,10.73
2019-05-01T15:17:13.713Z,8.63
2019-05-01T15:20:27.566Z,10.37
2019-05-01T15:23:53.110Z,8.60
2019-05-01T15:26:56.650Z,8.60
2019-05-01T15:30:14.432Z,13.57
2019-05-01T15:33:27.960Z,10.43
2019-05-01T15:36:41.933Z,8.90
2019-05-01T15:40:05.615Z,7.90
2019-05-01T15:43:28.371Z,10.33
2019-05-01T15:46:42.163Z,10.27
2019-05-01T15:49:56.284Z,14.30
2019-05-01T15:53:09.798Z,9.00
2019-05-01T15:56:23.429Z,10.67
2019-05-01T15:59:36.926Z,6.87
2019-05-01T16:02:50.551Z,8.57
2019-05-01T16:06:04.354Z,9.17
2019-05-01T16:09:18.114Z,8.70
2019-05-01T16:12:39.644Z,8.20
2019-05-01T16:15:53.365Z,7.63
2019-05-01T16:19:06.908Z,11.57
2019-05-01T16:22:20.836Z,8.93
2019-05-01T16:25:34.859Z,9.53
2019-05-01T16:28:48.784Z,8.60
2019-05-01T16:32:02.862Z,8.60
2019-05-01T16:35:16.563Z,8.17
2019-05-01T16:38:41.298Z,9.77
2019-05-01T16:41:55.105Z,8.60
2019-05-01T16:45:09.586Z,9.13
2019-05-01T16:48:23.214Z,10.57
2019-05-01T16:51:37.192Z,8.93
2019-05-01T16:54:58.999Z,8.43
2019-05-01T16:58:08.878Z,9.40
2019-05-01T17:01:39.796Z,9.13
2019-05-01T17:05:19.056Z,8.63
2019-05-01T17:08:43.190Z,8.30
2019-05-01T17:11:56.808Z,7.70
2019-05-01T17:15:11.026Z,8.47
2019-05-01T17:18:25.033Z,8.13
2019-05-01T17:21:38.719Z,8.50
2019-05-01T17:24:52.245Z,8.47
2019-05-01T17:28:08.148Z,7.73
2019-05-01T17:31:22.958Z,8.00
2019-05-01T17:34:36.454Z,8.33
2019-05-01T17:37:49.970Z,7.97
2019-05-01T17:41:03.988Z,9.07
2019-05-01T17:44:20.130Z,8.87
2019-05-01T17:47:33.134Z,8.13
2019-05-01T17:50:46.827Z,8.17
2019-05-01T17:54:00.559Z,8.07
2019-05-01T17:57:14.286Z,9.87
2019-05-01T18:00:50.238Z,7.77
2019-05-01T18:04:18.941Z,8.33
2019-05-01T18:07:33.170Z,9.93
2019-05-01T18:10:48.199Z,9.60
2019-05-01T18:14:02.219Z,18.90
2019-05-01T18:17:15.860Z,16.83
2019-05-01T18:20:29.579Z,13.90
2019-05-01T18:24:01.677Z,11.77
2019-05-01T18:27:26.353Z,10.50
2019-05-01T18:30:41.309Z,10.83
2019-05-01T18:33:57.019Z,9.80
2019-05-01T18:37:17.447Z,11.73
2019-05-01T18:40:35.551Z,9.80
2019-05-01T18:43:49.087Z,9.50
2019-05-01T18:47:03.099Z,10.53
2019-05-01T18:50:16.845Z,11.70
2019-05-01T18:53:30.621Z,10.13
2019-05-01T18:56:44.577Z,10.83
2019-05-01T18:59:58.681Z,11.20
2019-05-01T19:03:12.312Z,11.37
2019-05-01T19:06:26.189Z,10.90
2019-05-01T19:09:40.330Z,11.60
2019-05-01T19:12:54.229Z,11.33
2019-05-01T19:16:08.690Z,9.60
2019-05-01T19:19:23.456Z,10.63
2019-05-01T19:22:37.538Z,11.90
2019-05-01T19:25:51.695Z,10.40
2019-05-01T19:29:05.295Z,9.33
2019-05-01T19:32:20.716Z,10.70
2019-05-01T19:35:34.514Z,13.17
2019-05-01T19:38:48.189Z,14.10
2019-05-01T19:42:01.872Z,10.87
2019-05-01T19:45:18.228Z,11.40
2019-05-01T19:48:31.211Z,12.23
2019-05-01T19:51:44.785Z,12.53
2019-05-01T19:55:01.399Z,27.27
2019-05-01T19:58:14.126Z,15.43
2019-05-01T20:01:27.913Z,12.50
2019-05-01T20:04:45.200Z,10.63
2019-05-01T20:07:57.897Z,9.60
2019-05-01T20:11:11.994Z,11.77
2019-05-01T20:14:25.910Z,11.40
2019-05-01T20:17:39.736Z,12.90
2019-05-01T20:20:53.268Z,14.60
2019-05-01T20:24:09.452Z,11.43
2019-05-01T20:27:22.191Z,10.27
2019-05-01T20:30:35.786Z,13.43
2019-05-01T20:33:49.378Z,12.87
2019-05-01T20:37:03.274Z,12.57
2019-05-01T20:40:17.592Z,14.33
2019-05-01T20:43:33.515Z,12.10
2019-05-01T20:46:46.694Z,10.37
2019-05-01T20:50:00.590Z,12.13
2019-05-01T20:53:14.325Z,13.07
2019-05-01T20:56:33.325Z,10.00
2019-05-01T20:59:48.324Z,10.87
2019-05-01T21:03:02.312Z,11.13
2019-05-01T21:06:28.274Z,11.43
2019-05-01T21:09:47.680Z,11.17
2019-05-01T21:16:37.926Z,14.10
2019-05-01T21:19:49.765Z,10.67
2019-05-01T21:23:10.401Z,11.43
2019-05-01T21:26:18.750Z,14.03
2019-05-01T21:29:34.202Z,13.13
2019-05-01T21:32:47.975Z,10.63
2019-05-01T21:36:04.987Z,11.87
2019-05-01T21:39:18.044Z,13.30
2019-05-01T21:42:32.694Z,11.30
2019-05-01T21:45:46.189Z,10.83
2019-05-01T21:48:59.690Z,12.50
2019-05-01T21:52:13.664Z,11.30
2019-05-01T21:55:30.205Z,11.03
2019-05-01T21:58:45.161Z,10.40
2019-05-01T22:01:58.755Z,10.43
2019-05-01T22:05:12.756Z,13.53
2019-05-01T22:08:27.046Z,14.00
2019-05-01T22:11:43.319Z,13.97
2019-05-01T22:15:00.693Z,12.07
2019-05-01T22:18:31.537Z,11.07
2019-05-01T22:22:01.054Z,11.67
2019-05-01T22:25:27.902Z,12.57
2019-05-01T22:28:50.204Z,13.00
2019-05-01T22:32:12.492Z,12.93
2019-05-01T22:35:32.369Z,11.33
2019-05-01T22:38:46.706Z,13.50
2019-05-01T22:42:00.442Z,11.97
2019-05-01T22:45:19.445Z,13.63
2019-05-01T22:48:33.037Z,12.43
2019-05-01T22:51:46.555Z,12.30
2019-05-01T22:55:00.181Z,11.73
2019-05-01T22:58:13.861Z,13.03
2019-05-01T23:01:27.547Z,13.53
2019-05-01T23:04:41.222Z,13.13
2019-05-01T23:07:57.072Z,15.27
2019-05-01T23:11:19.870Z,13.03
2019-05-01T23:14:27.519Z,13.57
2019-05-01T23:17:44.360Z,13.00
2019-05-01T23:20:58.053Z,14.67
2019-05-01T23:24:11.648Z,12.53
2019-05-01T23:27:29.224Z,13.57
2019-05-01T23:30:40.673Z,14.40
2019-05-01T23:33:54.190Z,12.07
2019-05-01T23:37:08.070Z,15.47
2019-05-01T23:40:21.921Z,15.23
2019-05-01T23:43:35.946Z,14.07
2019-05-01T23:46:49.451Z,16.83
2019-05-01T23:50:03.874Z,16.27
2019-05-01T23:53:17.378Z,14.30
2019-05-01T23:56:35.161Z,14.43
2019-05-01T23:59:46.851Z,18.60
